Time;durP1;ratioP1;P1;durP2;ratioP2;P2;SDS_P1;SDS_P2;PMS_P1;PMS_P2;Temp;Humidity;BMP_temperature;BMP_pressure;BME280_temperature;BME280_humidity;BME280_pressure;Samples;Min_cycle;Max_cycle;Signal;HPM_P1;HPM_P2
2022/04/15 00:00:27;;;;;;;21.58;17.58;;;;;;;;;;4977452;28;20037;-79
2022/04/15 00:02:52;;;;;;;26.20;19.80;;;;;;;;;;4992027;28;20035;-79
2022/04/15 00:05:37;;;;;;;27.42;19.30;;;;;;;;;;4993628;28;20074;-79
2022/04/15 00:08:07;;;;;;;25.20;19.67;;;;;;;;;;4972719;28;20035;-79
2022/04/15 00:10:33;;;;;;;27.52;20.65;;;;;;;;;;4956840;28;20059;-78
2022/04/15 00:12:59;;;;;;;26.77;19.27;;;;;;;;;;4965601;28;20145;-79
2022/04/15 00:15:25;;;;;;;27.30;21.00;;;;;;;;;;4967046;28;20030;-79
2022/04/15 00:17:51;;;;;;;28.35;19.80;;;;;;;;;;4991254;28;20030;-79
2022/04/15 00:20:17;;;;;;;23.48;19.77;;;;;;;;;;4984008;28;20409;-79
2022/04/15 00:22:42;;;;;;;25.27;19.88;;;;;;;;;;4985796;28;20065;-79
2022/04/15 00:25:10;;;;;;;28.63;20.55;;;;;;;;;;4979256;28;20046;-78
2022/04/15 00:27:36;;;;;;;24.65;20.23;;;;;;;;;;4993179;28;20045;-79
2022/04/15 00:30:05;;;;;;;26.08;21.48;;;;;;;;;;4993804;28;20033;-79
2022/04/15 00:32:36;;;;;;;24.90;19.90;;;;;;;;;;4990332;28;20172;-79
2022/04/15 00:35:02;;;;;;;25.60;21.15;;;;;;;;;;4963795;28;20441;-79
2022/04/15 00:37:28;;;;;;;26.42;20.13;;;;;;;;;;4962075;28;20062;-79
2022/04/15 00:39:53;;;;;;;26.65;19.75;;;;;;;;;;4977920;28;20116;-79
2022/04/15 00:42:23;;;;;;;26.70;19.48;;;;;;;;;;4977215;28;20038;-79
2022/04/15 00:44:55;;;;;;;27.65;20.42;;;;;;;;;;4983059;28;20044;-79
2022/04/15 00:48:00;;;;;;;25.67;20.10;;;;;;;;;;4980859;28;20593;-79
2022/04/15 00:50:30;;;;;;;21.27;18.00;;;;;;;;;;4975920;28;20045;-79
2022/04/15 00:53:01;;;;;;;24.10;19.17;;;;;;;;;;4962333;28;20212;-80
2022/04/15 00:55:27;;;;;;;25.35;19.38;;;;;;;;;;4978394;28;20092;-79
2022/04/15 00:58:00;;;;;;;24.75;19.05;;;;;;;;;;4985749;28;20041;-79
2022/04/15 01:00:28;;;;;;;21.92;17.13;;;;;;;;;;4985941;28;20030;-79
2022/04/15 01:02:56;;;;;;;22.52;17.10;;;;;;;;;;5001427;28;20030;-78
2022/04/15 01:05:22;;;;;;;18.65;14.90;;;;;;;;;;4989723;28;20034;-79
2022/04/15 01:07:51;;;;;;;16.85;13.02;;;;;;;;;;4993474;28;20033;-79
2022/04/15 01:10:19;;;;;;;17.80;12.77;;;;;;;;;;4965357;28;20152;-80
2022/04/15 01:12:51;;;;;;;17.70;12.18;;;;;;;;;;4980641;28;20037;-79
2022/04/15 01:15:17;;;;;;;14.40;12.15;;;;;;;;;;4984779;28;20037;-80
2022/04/15 01:17:42;;;;;;;17.90;11.77;;;;;;;;;;5000088;28;20069;-79
2022/04/15 01:20:10;;;;;;;18.00;11.25;;;;;;;;;;4985226;28;20062;-79
2022/04/15 01:22:36;;;;;;;;;;;;;;;;;;4975044;28;20054;-79
2022/04/15 01:25:03;;;;;;;13.82;9.98;;;;;;;;;;4967394;28;20022;-79
2022/04/15 01:27:33;;;;;;;12.85;8.70;;;;;;;;;;4973726;28;20470;-78
2022/04/15 01:29:58;;;;;;;13.18;9.18;;;;;;;;;;4975056;28;20043;-79
2022/04/15 01:32:24;;;;;;;12.90;9.20;;;;;;;;;;4974041;28;20040;-79
2022/04/15 01:34:49;;;;;;;15.60;10.05;;;;;;;;;;4981690;28;20138;-79
2022/04/15 01:37:16;;;;;;;15.00;9.95;;;;;;;;;;4974839;28;20049;-79
2022/04/15 01:39:43;;;;;;;14.27;9.88;;;;;;;;;;4959304;28;20683;-79
2022/04/15 01:42:12;;;;;;;14.52;9.57;;;;;;;;;;4960330;28;20031;-79
2022/04/15 01:44:39;;;;;;;12.85;9.88;;;;;;;;;;4980169;28;20057;-79
2022/04/15 01:47:07;;;;;;;13.55;9.73;;;;;;;;;;4966049;28;20577;-79
2022/04/15 01:49:32;;;;;;;16.00;11.00;;;;;;;;;;4965009;28;20035;-79
2022/04/15 01:51:58;;;;;;;17.48;10.80;;;;;;;;;;4956703;28;20042;-80
2022/04/15 01:54:23;;;;;;;15.82;10.18;;;;;;;;;;4980598;28;20538;-79
2022/04/15 01:56:48;;;;;;;14.27;10.50;;;;;;;;;;4979325;28;20041;-79
2022/04/15 01:59:13;;;;;;;16.20;10.55;;;;;;;;;;4977450;28;20034;-79
2022/04/15 02:01:39;;;;;;;15.70;10.85;;;;;;;;;;4985955;28;20088;-79
2022/04/15 02:04:04;;;;;;;17.95;11.30;;;;;;;;;;4986030;28;20038;-79
2022/04/15 02:06:29;;;;;;;17.45;11.63;;;;;;;;;;4982374;28;20053;-79
2022/04/15 02:08:55;;;;;;;16.15;11.82;;;;;;;;;;4988328;28;20394;-80
2022/04/15 02:11:20;;;;;;;16.00;11.15;;;;;;;;;;4988515;28;20041;-79
2022/04/15 02:13:45;;;;;;;16.83;11.30;;;;;;;;;;4987775;28;20046;-78
2022/04/15 02:16:10;;;;;;;17.60;11.68;;;;;;;;;;4981086;28;20041;-79
2022/04/15 02:18:36;;;;;;;15.38;10.98;;;;;;;;;;4979321;28;20514;-79
2022/04/15 02:21:01;;;;;;;18.25;11.73;;;;;;;;;;4981014;28;20030;-79
2022/04/15 02:23:27;;;;;;;15.98;12.43;;;;;;;;;;4982492;28;20114;-79
2022/04/15 02:25:52;;;;;;;15.18;11.25;;;;;;;;;;4981859;28;20088;-78
2022/04/15 02:28:17;;;;;;;16.15;11.75;;;;;;;;;;4987275;28;20039;-79
2022/04/15 02:30:47;;;;;;;15.75;10.50;;;;;;;;;;4985656;28;20057;-78
2022/04/15 02:33:12;;;;;;;16.92;10.70;;;;;;;;;;4982035;28;20103;-79
2022/04/15 02:35:38;;;;;;;18.42;11.88;;;;;;;;;;4995375;28;20473;-79
2022/04/15 02:38:03;;;;;;;14.63;11.23;;;;;;;;;;4987071;28;20046;-79
2022/04/15 02:40:28;;;;;;;14.88;11.20;;;;;;;;;;4994576;28;20470;-79
2022/04/15 02:42:54;;;;;;;16.15;11.10;;;;;;;;;;4984398;28;20029;-78
2022/04/15 02:45:21;;;;;;;15.35;11.30;;;;;;;;;;4985060;28;20108;-78
2022/04/15 02:47:47;;;;;;;17.70;11.90;;;;;;;;;;4987802;28;20041;-79
2022/04/15 02:50:12;;;;;;;16.08;11.52;;;;;;;;;;4986420;28;20042;-79
2022/04/15 02:52:37;;;;;;;15.50;11.38;;;;;;;;;;4986722;28;20033;-79
2022/04/15 02:55:04;;;;;;;15.18;11.93;;;;;;;;;;4987550;28;20505;-79
2022/04/15 02:57:29;;;;;;;16.55;11.93;;;;;;;;;;4992993;28;20453;-78
2022/04/15 02:59:54;;;;;;;18.35;12.05;;;;;;;;;;4980653;28;20038;-78
2022/04/15 03:02:19;;;;;;;16.25;11.43;;;;;;;;;;4996040;28;20042;-79
2022/04/15 03:04:45;;;;;;;16.73;12.02;;;;;;;;;;4985297;28;20097;-78
2022/04/15 03:07:10;;;;;;;15.25;11.35;;;;;;;;;;4985185;28;20037;-78
2022/04/15 03:09:35;;;;;;;13.80;11.05;;;;;;;;;;4993246;28;20038;-79
2022/04/15 03:12:01;;;;;;;15.57;11.23;;;;;;;;;;4980745;28;20039;-78
2022/04/15 03:14:26;;;;;;;14.68;11.57;;;;;;;;;;4979586;28;20062;-78
2022/04/15 03:16:51;;;;;;;15.45;11.02;;;;;;;;;;4986540;28;20537;-78
2022/04/15 03:19:17;;;;;;;15.13;11.35;;;;;;;;;;4993450;28;20130;-79
2022/04/15 03:21:42;;;;;;;15.95;11.45;;;;;;;;;;4994923;28;20369;-79
2022/04/15 03:24:08;;;;;;;15.75;11.15;;;;;;;;;;4991729;28;20038;-78
2022/04/15 03:26:33;;;;;;;16.45;11.52;;;;;;;;;;4993905;28;20042;-78
2022/04/15 03:28:59;;;;;;;17.42;12.05;;;;;;;;;;4994949;28;20043;-78
2022/04/15 03:31:24;;;;;;;15.77;11.70;;;;;;;;;;4981607;28;20533;-78
2022/04/15 03:33:49;;;;;;;16.73;11.57;;;;;;;;;;4985677;28;20117;-79
2022/04/15 03:36:16;;;;;;;15.32;11.35;;;;;;;;;;4980283;28;20046;-79
2022/04/15 03:38:42;;;;;;;14.80;10.80;;;;;;;;;;4995822;28;20045;-79
2022/04/15 03:41:08;;;;;;;15.13;10.65;;;;;;;;;;4977683;28;20033;-79
2022/04/15 03:43:33;;;;;;;14.50;10.85;;;;;;;;;;4976724;28;20037;-78
2022/04/15 03:45:59;;;;;;;14.45;10.82;;;;;;;;;;4981527;28;20629;-79
2022/04/15 03:48:25;;;;;;;14.25;10.95;;;;;;;;;;4976818;28;20045;-79
2022/04/15 03:50:51;;;;;;;14.13;11.43;;;;;;;;;;4983661;28;20109;-79
2022/04/15 03:53:16;;;;;;;14.57;10.95;;;;;;;;;;4985660;28;20042;-79
2022/04/15 03:55:41;;;;;;;14.68;10.48;;;;;;;;;;4992057;28;20058;-79
2022/04/15 03:58:07;;;;;;;13.02;10.90;;;;;;;;;;4979067;28;20046;-78
2022/04/15 04:00:32;;;;;;;13.90;10.43;;;;;;;;;;4986445;28;20406;-78
2022/04/15 04:02:57;;;;;;;14.38;10.65;;;;;;;;;;4983786;28;20564;-78
2022/04/15 04:05:23;;;;;;;15.98;10.95;;;;;;;;;;4979194;28;20045;-79
2022/04/15 04:07:49;;;;;;;14.77;10.65;;;;;;;;;;5002831;28;20044;-79
2022/04/15 04:10:15;;;;;;;17.42;11.20;;;;;;;;;;4980536;28;20046;-79
2022/04/15 04:12:42;;;;;;;14.63;10.27;;;;;;;;;;4986504;28;20061;-79
2022/04/15 04:15:08;;;;;;;13.02;10.38;;;;;;;;;;4996281;28;20049;-79
2022/04/15 04:17:34;;;;;;;14.85;10.73;;;;;;;;;;4984676;28;20515;-79
2022/04/15 04:20:00;;;;;;;13.32;10.48;;;;;;;;;;4985644;28;20033;-79
2022/04/15 04:22:29;;;;;;;13.60;10.55;;;;;;;;;;5000554;28;20038;-79
2022/04/15 04:24:55;;;;;;;12.85;10.23;;;;;;;;;;5001218;28;20521;-79
2022/04/15 04:27:20;;;;;;;13.98;10.75;;;;;;;;;;4979515;28;20240;-79
2022/04/15 04:29:45;;;;;;;14.63;10.82;;;;;;;;;;4980032;28;20513;-79
2022/04/15 04:32:11;;;;;;;14.73;10.38;;;;;;;;;;4994714;28;20042;-79
2022/04/15 04:34:36;;;;;;;14.32;10.50;;;;;;;;;;4993228;28;20540;-79
2022/04/15 04:37:01;;;;;;;16.42;10.52;;;;;;;;;;4993165;28;20033;-79
2022/04/15 04:39:29;;;;;;;13.45;10.43;;;;;;;;;;4980878;28;20037;-79
2022/04/15 04:41:55;;;;;;;14.77;10.23;;;;;;;;;;4992573;28;20038;-79
2022/04/15 04:44:20;;;;;;;13.32;9.70;;;;;;;;;;4986273;28;20853;-79
2022/04/15 04:46:46;;;;;;;15.52;9.95;;;;;;;;;;4995823;28;20109;-79
2022/04/15 04:49:11;;;;;;;13.45;9.77;;;;;;;;;;4995248;28;20077;-79
2022/04/15 04:51:36;;;;;;;11.65;9.07;;;;;;;;;;4990505;28;20738;-79
2022/04/15 04:54:02;;;;;;;12.52;9.45;;;;;;;;;;4992017;28;20042;-79
2022/04/15 04:56:27;;;;;;;12.27;8.95;;;;;;;;;;4985875;28;20054;-79
2022/04/15 04:58:53;;;;;;;11.30;9.43;;;;;;;;;;4990990;28;20035;-79
2022/04/15 05:01:18;;;;;;;13.30;9.30;;;;;;;;;;4991454;28;20047;-79
2022/04/15 05:03:43;;;;;;;12.60;9.60;;;;;;;;;;4985545;28;20508;-79
2022/04/15 05:06:08;;;;;;;13.25;9.27;;;;;;;;;;4991490;28;20074;-79
2022/04/15 05:08:34;;;;;;;13.05;8.82;;;;;;;;;;4976667;28;20042;-79
2022/04/15 05:10:59;;;;;;;13.05;8.88;;;;;;;;;;4992096;28;20408;-79
2022/04/15 05:13:25;;;;;;;13.32;9.52;;;;;;;;;;4959984;28;20068;-79
2022/04/15 05:15:50;;;;;;;12.13;8.80;;;;;;;;;;4974592;28;20066;-79
2022/04/15 05:18:15;;;;;;;13.60;9.98;;;;;;;;;;4957125;28;20113;-79
2022/04/15 05:20:41;;;;;;;13.95;9.13;;;;;;;;;;4963465;28;20097;-79
2022/04/15 05:23:06;;;;;;;13.88;9.07;;;;;;;;;;4979199;28;20044;-79
2022/04/15 05:25:31;;;;;;;12.88;8.95;;;;;;;;;;4975504;28;20640;-78
2022/04/15 05:27:59;;;;;;;12.55;9.20;;;;;;;;;;5001751;28;20070;-79
2022/04/15 05:30:25;;;;;;;16.35;9.90;;;;;;;;;;4973178;28;20070;-79
2022/04/15 05:32:51;;;;;;;14.88;10.38;;;;;;;;;;4964252;28;20069;-79
2022/04/15 05:35:16;;;;;;;14.48;10.52;;;;;;;;;;4979362;28;20034;-78
2022/04/15 05:37:44;;;;;;;14.30;9.93;;;;;;;;;;4994757;28;20044;-79
2022/04/15 05:40:10;;;;;;;11.85;9.25;;;;;;;;;;4987356;28;20485;-79
2022/04/15 05:42:35;;;;;;;16.85;10.55;;;;;;;;;;4994783;28;20041;-79
2022/04/15 05:45:00;;;;;;;14.52;9.85;;;;;;;;;;4988015;28;20476;-79
2022/04/15 05:47:26;;;;;;;11.60;9.63;;;;;;;;;;4988641;28;20058;-79
2022/04/15 05:49:51;;;;;;;13.68;10.00;;;;;;;;;;4997430;28;20504;-79
2022/04/15 05:52:16;;;;;;;11.80;9.50;;;;;;;;;;4983686;28;20141;-79
2022/04/15 05:54:42;;;;;;;14.63;10.20;;;;;;;;;;4986953;28;20034;-79
2022/04/15 05:57:07;;;;;;;12.32;10.00;;;;;;;;;;4981784;28;20042;-79
2022/04/15 05:59:32;;;;;;;14.10;10.52;;;;;;;;;;4987950;28;20038;-79
2022/04/15 06:01:58;;;;;;;11.57;9.43;;;;;;;;;;4997682;28;20123;-79
2022/04/15 06:04:23;;;;;;;12.70;9.50;;;;;;;;;;4997074;28;20038;-79
2022/04/15 06:06:48;;;;;;;13.98;9.98;;;;;;;;;;4981879;28;20030;-79
2022/04/15 06:09:14;;;;;;;13.05;9.57;;;;;;;;;;4980735;28;20140;-79
2022/04/15 06:11:41;;;;;;;12.63;9.80;;;;;;;;;;4987882;28;20122;-79
2022/04/15 06:14:07;;;;;;;13.43;9.63;;;;;;;;;;4977714;28;20038;-79
2022/04/15 06:16:33;;;;;;;11.90;9.57;;;;;;;;;;4985987;28;20065;-79
2022/04/15 06:19:01;;;;;;;13.02;9.40;;;;;;;;;;4983759;28;20058;-79
2022/04/15 06:21:26;;;;;;;14.68;9.48;;;;;;;;;;4988319;28;20377;-78
2022/04/15 06:23:52;;;;;;;11.38;9.30;;;;;;;;;;4963451;28;20066;-79
2022/04/15 06:26:17;;;;;;;13.23;9.32;;;;;;;;;;4966992;28;20054;-79
2022/04/15 06:28:42;;;;;;;14.43;9.38;;;;;;;;;;4957980;28;20045;-79
2022/04/15 06:31:08;;;;;;;14.57;9.18;;;;;;;;;;4981566;28;20113;-78
2022/04/15 06:33:33;;;;;;;13.48;9.32;;;;;;;;;;4987385;28;20056;-79
2022/04/15 06:36:00;;;;;;;13.18;9.00;;;;;;;;;;4986736;28;20516;-79
2022/04/15 06:38:25;;;;;;;12.07;9.02;;;;;;;;;;4975686;28;20039;-78
2022/04/15 06:40:50;;;;;;;14.27;9.30;;;;;;;;;;4990302;28;20033;-79
2022/04/15 06:43:16;;;;;;;11.68;8.48;;;;;;;;;;4980312;28;20112;-79
2022/04/15 06:45:41;;;;;;;12.32;8.55;;;;;;;;;;4977164;28;20773;-78
2022/04/15 06:48:07;;;;;;;11.68;8.40;;;;;;;;;;4993050;28;20084;-79
2022/04/15 06:50:32;;;;;;;12.68;8.73;;;;;;;;;;4985553;28;20409;-79
2022/04/15 06:52:58;;;;;;;12.50;8.60;;;;;;;;;;4994352;28;20038;-79
2022/04/15 06:55:23;;;;;;;11.05;7.90;;;;;;;;;;4998224;28;20045;-79
2022/04/15 06:57:48;;;;;;;10.88;8.48;;;;;;;;;;4986412;28;20492;-79
2022/04/15 07:00:14;;;;;;;10.88;7.70;;;;;;;;;;4987711;28;20522;-79
2022/04/15 07:02:41;;;;;;;10.45;7.60;;;;;;;;;;4987185;28;20124;-79
2022/04/15 07:05:09;;;;;;;9.63;7.65;;;;;;;;;;4979485;28;20593;-79
2022/04/15 07:07:34;;;;;;;10.55;7.75;;;;;;;;;;5000759;28;20033;-79
2022/04/15 07:10:00;;;;;;;9.95;7.05;;;;;;;;;;4993303;28;20030;-79
2022/04/15 07:12:28;;;;;;;12.07;7.72;;;;;;;;;;4991938;28;20120;-79
2022/04/15 07:14:53;;;;;;;12.40;7.63;;;;;;;;;;5001746;28;20089;-79
2022/04/15 07:17:18;;;;;;;10.90;7.63;;;;;;;;;;4994195;28;20411;-79
2022/04/15 07:19:44;;;;;;;10.65;7.10;;;;;;;;;;4980567;28;20042;-79
2022/04/15 07:22:09;;;;;;;11.68;8.07;;;;;;;;;;4994479;28;20062;-78
2022/04/15 07:24:34;;;;;;;9.80;6.93;;;;;;;;;;5002465;28;20041;-79
2022/04/15 07:27:00;;;;;;;9.75;6.90;;;;;;;;;;4971166;28;20497;-79
2022/04/15 07:29:30;;;;;;;9.10;7.03;;;;;;;;;;4974248;28;20041;-79
2022/04/15 07:31:58;;;;;;;11.00;7.10;;;;;;;;;;4964610;28;20043;-79
2022/04/15 07:34:23;;;;;;;10.20;6.72;;;;;;;;;;4958942;28;20508;-78
2022/04/15 07:36:54;;;;;;;10.85;6.75;;;;;;;;;;4979111;28;20034;-79
2022/04/15 07:39:20;;;;;;;12.07;7.00;;;;;;;;;;4991308;28;20454;-79
2022/04/15 07:41:46;;;;;;;9.60;6.55;;;;;;;;;;4979991;28;20121;-79
2022/04/15 07:44:12;;;;;;;10.63;6.82;;;;;;;;;;4977246;28;20054;-78
2022/04/15 07:46:38;;;;;;;10.52;7.15;;;;;;;;;;4979946;28;20069;-79
2022/04/15 07:49:04;;;;;;;9.23;6.55;;;;;;;;;;4996972;28;20033;-79
2022/04/15 07:51:30;;;;;;;9.57;7.13;;;;;;;;;;4978753;28;20041;-78
2022/04/15 07:53:56;;;;;;;11.98;7.75;;;;;;;;;;4981794;28;20061;-79
2022/04/15 07:56:21;;;;;;;11.25;7.15;;;;;;;;;;4990792;28;20058;-78
2022/04/15 07:58:47;;;;;;;13.65;7.90;;;;;;;;;;4983864;28;20034;-79
2022/04/15 08:01:12;;;;;;;10.60;7.10;;;;;;;;;;4985225;28;20485;-78
2022/04/15 08:03:38;;;;;;;10.85;7.57;;;;;;;;;;4993268;28;20140;-79
2022/04/15 08:06:04;;;;;;;11.25;7.32;;;;;;;;;;4984855;28;20034;-80
2022/04/15 08:08:29;;;;;;;10.40;7.45;;;;;;;;;;4961821;28;20031;-78
2022/04/15 08:10:56;;;;;;;11.45;7.15;;;;;;;;;;4982244;28;20045;-78
2022/04/15 08:13:21;;;;;;;10.90;7.65;;;;;;;;;;4983029;28;20130;-79
2022/04/15 08:15:50;;;;;;;11.93;7.72;;;;;;;;;;4977669;28;20897;-78
2022/04/15 08:18:16;;;;;;;11.75;7.75;;;;;;;;;;4984714;28;20088;-78
2022/04/15 08:20:42;;;;;;;11.00;7.20;;;;;;;;;;4980663;28;20026;-79
2022/04/15 08:23:09;;;;;;;11.80;7.40;;;;;;;;;;4968358;28;20061;-79
2022/04/15 08:25:35;;;;;;;10.30;7.47;;;;;;;;;;4962246;28;20030;-79
2022/04/15 08:28:04;;;;;;;10.90;7.38;;;;;;;;;;4968073;28;20034;-79
2022/04/15 08:30:33;;;;;;;10.77;7.35;;;;;;;;;;4970987;28;20042;-79
2022/04/15 08:33:02;;;;;;;11.52;7.97;;;;;;;;;;4988755;28;20038;-80
2022/04/15 08:35:28;;;;;;;12.05;7.90;;;;;;;;;;4988056;28;20065;-79
2022/04/15 08:37:53;;;;;;;15.07;8.05;;;;;;;;;;4986587;28;20061;-79
2022/04/15 08:40:19;;;;;;;11.68;8.07;;;;;;;;;;4993913;28;20038;-79
2022/04/15 08:42:44;;;;;;;11.02;8.02;;;;;;;;;;4980938;28;20443;-79
2022/04/15 08:45:12;;;;;;;11.10;7.80;;;;;;;;;;4981726;28;20120;-79
2022/04/15 08:47:38;;;;;;;11.98;8.15;;;;;;;;;;4961291;28;20042;-79
2022/04/15 08:50:05;;;;;;;13.43;8.55;;;;;;;;;;4969835;28;20041;-79
2022/04/15 08:52:31;;;;;;;11.23;8.48;;;;;;;;;;5003962;28;20479;-80
2022/04/15 08:54:58;;;;;;;12.10;8.32;;;;;;;;;;4965261;28;20042;-79
2022/04/15 08:57:23;;;;;;;13.95;9.15;;;;;;;;;;4986799;28;20034;-79
2022/04/15 08:59:50;;;;;;;14.13;8.85;;;;;;;;;;4962849;28;20097;-80
2022/04/15 09:02:35;;;;;;;20.23;9.88;;;;;;;;;;4970709;28;20034;-79
2022/04/15 09:05:00;;;;;;;13.30;8.68;;;;;;;;;;4979173;28;20049;-79
2022/04/15 09:07:34;;;;;;;13.18;8.32;;;;;;;;;;4973617;28;20125;-79
2022/04/15 09:10:01;;;;;;;14.90;9.02;;;;;;;;;;4966757;28;20456;-78
2022/04/15 09:12:30;;;;;;;;;;;;;;;;;;4997418;28;20042;-78
2022/04/15 09:14:59;;;;;;;12.52;9.15;;;;;;;;;;4976788;28;19993;-79
2022/04/15 09:17:28;;;;;;;12.63;8.55;;;;;;;;;;4982455;28;20575;-80
2022/04/15 09:19:54;;;;;;;13.93;8.73;;;;;;;;;;4987357;28;20114;-80
2022/04/15 09:22:19;;;;;;;10.57;7.80;;;;;;;;;;4974292;28;20121;-79
2022/04/15 09:24:46;;;;;;;14.30;8.80;;;;;;;;;;4964576;28;20038;-78
2022/04/15 09:27:11;;;;;;;12.85;8.63;;;;;;;;;;4979938;28;20046;-78
2022/04/15 09:29:39;;;;;;;13.45;9.18;;;;;;;;;;4967524;28;20540;-78
2022/04/15 09:32:06;;;;;;;16.50;9.88;;;;;;;;;;4979333;28;20045;-78
2022/04/15 09:34:31;;;;;;;15.18;9.80;;;;;;;;;;4964479;28;20227;-79
2022/04/15 09:36:57;;;;;;;17.15;10.20;;;;;;;;;;4965588;28;20550;-80
2022/04/15 09:39:22;;;;;;;20.38;13.15;;;;;;;;;;4966385;28;20026;-80
2022/04/15 09:41:52;;;;;;;14.40;10.02;;;;;;;;;;4980651;28;20122;-79
2022/04/15 09:44:17;;;;;;;16.67;10.60;;;;;;;;;;4997485;28;20117;-79
2022/04/15 09:46:44;;;;;;;15.27;10.13;;;;;;;;;;4986086;28;20101;-79
2022/04/15 09:49:10;;;;;;;17.13;10.60;;;;;;;;;;4981752;28;20465;-80
2022/04/15 09:51:52;;;;;;;16.08;11.55;;;;;;;;;;4995911;28;20118;-78
2022/04/15 09:54:27;;;;;;;15.95;11.23;;;;;;;;;;4986136;28;20125;-78
2022/04/15 09:56:54;;;;;;;18.65;10.95;;;;;;;;;;5000499;28;20478;-78
2022/04/15 09:59:21;;;;;;;15.43;10.53;;;;;;;;;;4962324;28;20089;-78
2022/04/15 10:01:52;;;;;;;19.10;10.98;;;;;;;;;;4971164;28;20033;-78
2022/04/15 10:04:18;;;;;;;14.27;10.68;;;;;;;;;;4976651;28;20070;-79
2022/04/15 10:06:43;;;;;;;14.77;10.98;;;;;;;;;;4964402;28;20402;-78
2022/04/15 10:09:12;;;;;;;16.05;11.30;;;;;;;;;;4970814;28;20037;-79
2022/04/15 10:11:40;;;;;;;15.35;10.68;;;;;;;;;;4978363;28;20030;-78
2022/04/15 10:14:07;;;;;;;14.20;10.38;;;;;;;;;;4978761;28;20046;-78
2022/04/15 10:16:33;;;;;;;13.32;9.55;;;;;;;;;;4975612;28;20046;-78
2022/04/15 10:19:00;;;;;;;12.95;9.80;;;;;;;;;;4965667;28;20035;-78
2022/04/15 10:21:27;;;;;;;13.55;9.48;;;;;;;;;;4989668;28;20045;-78
2022/04/15 10:23:52;;;;;;;12.45;9.07;;;;;;;;;;4963935;28;20061;-78
2022/04/15 10:26:18;;;;;;;12.88;9.27;;;;;;;;;;4970787;28;20035;-79
2022/04/15 10:28:46;;;;;;;14.68;9.18;;;;;;;;;;4980235;28;20043;-79
2022/04/15 10:31:15;;;;;;;14.25;9.30;;;;;;;;;;5002000;28;20033;-78
2022/04/15 10:33:41;;;;;;;16.25;10.80;;;;;;;;;;4978668;28;20038;-78
2022/04/15 10:36:22;;;;;;;15.13;8.60;;;;;;;;;;4999499;28;20045;-78
2022/04/15 10:39:03;;;;;;;13.35;8.70;;;;;;;;;;5003342;28;20046;-78
2022/04/15 10:41:29;;;;;;;11.88;8.23;;;;;;;;;;4977498;28;20034;-79
2022/04/15 10:43:57;;;;;;;11.40;8.05;;;;;;;;;;4977207;28;20042;-78
2022/04/15 10:46:29;;;;;;;11.32;8.10;;;;;;;;;;4980575;28;20046;-78
2022/04/15 10:48:58;;;;;;;13.23;9.23;;;;;;;;;;5004225;28;20034;-79
2022/04/15 10:51:26;;;;;;;13.90;9.02;;;;;;;;;;4964878;28;20035;-79
2022/04/15 10:53:54;;;;;;;13.13;8.85;;;;;;;;;;4962727;28;20038;-78
2022/04/15 10:56:21;;;;;;;12.98;8.93;;;;;;;;;;4995270;28;20034;-78
2022/04/15 11:01:32;;;;;;;13.00;9.10;;;;;;;;;;4996468;28;20053;-78
2022/04/15 11:04:05;;;;;;;11.18;8.40;;;;;;;;;;4989779;28;20034;-78
2022/04/15 11:06:31;;;;;;;11.02;7.88;;;;;;;;;;4978509;28;20113;-78
2022/04/15 11:08:56;;;;;;;12.80;8.30;;;;;;;;;;4991473;28;20114;-78
2022/04/15 11:11:42;;;;;;;10.23;8.10;;;;;;;;;;4970219;28;20053;-78
2022/04/15 11:14:13;;;;;;;11.15;7.55;;;;;;;;;;4975277;28;20037;-78
2022/04/15 11:16:50;;;;;;;10.02;7.15;;;;;;;;;;4982273;28;20100;-78
2022/04/15 11:19:23;;;;;;;9.85;6.93;;;;;;;;;;4982797;28;20096;-79
2022/04/15 11:21:53;;;;;;;9.52;6.60;;;;;;;;;;4969602;28;20094;-78
2022/04/15 11:24:33;;;;;;;10.07;7.13;;;;;;;;;;4962586;28;20417;-78
2022/04/15 11:27:01;;;;;;;8.50;6.00;;;;;;;;;;4969643;28;20495;-79
2022/04/15 11:29:31;;;;;;;8.35;5.65;;;;;;;;;;4983956;28;20182;-78
2022/04/15 11:31:58;;;;;;;7.78;5.72;;;;;;;;;;5003347;28;20069;-78
2022/04/15 11:34:24;;;;;;;7.75;5.55;;;;;;;;;;4977879;28;20038;-79
2022/04/15 11:36:53;;;;;;;7.82;5.28;;;;;;;;;;4995461;28;20497;-79
2022/04/15 11:39:21;;;;;;;6.85;5.03;;;;;;;;;;4996226;28;20046;-78
2022/04/15 11:41:50;;;;;;;;;;;;;;;;;;4961892;28;20526;-79
2022/04/15 11:44:16;;;;;;;6.43;4.05;;;;;;;;;;4989554;28;19924;-78
2022/04/15 11:46:47;;;;;;;6.20;3.70;;;;;;;;;;4959086;28;20502;-79
2022/04/15 11:49:16;;;;;;;7.28;4.05;;;;;;;;;;4965541;28;20885;-79
2022/04/15 11:52:00;;;;;;;6.95;3.50;;;;;;;;;;4980297;28;20038;-79
2022/04/15 11:54:33;;;;;;;5.30;3.33;;;;;;;;;;4980879;28;20069;-79
2022/04/15 11:57:03;;;;;;;5.00;3.33;;;;;;;;;;4977823;28;20031;-78
2022/04/15 11:59:28;;;;;;;5.85;3.30;;;;;;;;;;4967452;28;20065;-78
2022/04/15 12:01:54;;;;;;;5.70;3.30;;;;;;;;;;4979642;28;20043;-78
2022/04/15 12:04:20;;;;;;;5.32;3.35;;;;;;;;;;4987473;28;20160;-78
2022/04/15 12:06:45;;;;;;;6.00;3.42;;;;;;;;;;5003150;28;20031;-78
2022/04/15 12:09:14;;;;;;;5.70;2.90;;;;;;;;;;4988163;28;20389;-79
2022/04/15 12:11:40;;;;;;;4.18;2.63;;;;;;;;;;4978313;28;20522;-79
2022/04/15 12:14:08;;;;;;;6.20;3.72;;;;;;;;;;4964304;28;20109;-78
2022/04/15 12:16:35;;;;;;;4.00;2.60;;;;;;;;;;4969911;28;20430;-78
2022/04/15 12:19:03;;;;;;;5.28;2.58;;;;;;;;;;5003663;28;20049;-78
2022/04/15 12:21:29;;;;;;;4.50;2.90;;;;;;;;;;4980653;28;20113;-78
2022/04/15 12:24:09;;;;;;;4.10;2.47;;;;;;;;;;4966032;28;20121;-78
2022/04/15 12:26:41;;;;;;;4.63;2.50;;;;;;;;;;4982894;28;20093;-78
2022/04/15 12:31:53;;;;;;;3.92;2.13;;;;;;;;;;4990432;28;20053;-78
2022/04/15 12:34:30;;;;;;;3.42;2.10;;;;;;;;;;4995687;28;20413;-78
2022/04/15 12:36:55;;;;;;;3.20;1.80;;;;;;;;;;5000077;28;20117;-78
2022/04/15 12:39:20;;;;;;;3.95;2.13;;;;;;;;;;4958959;28;20911;-78
2022/04/15 12:41:48;;;;;;;3.63;2.05;;;;;;;;;;4965265;28;20044;-78
2022/04/15 12:44:20;;;;;;;3.63;2.30;;;;;;;;;;4964250;28;20039;-78
2022/04/15 12:46:47;;;;;;;22.85;18.20;;;;;;;;;;4987797;28;20489;-78
2022/04/15 12:49:45;;;;;;;4.35;2.85;;;;;;;;;;4992728;28;20069;-78
2022/04/15 12:52:11;;;;;;;18.90;12.68;;;;;;;;;;4945546;28;20204;-78
2022/04/15 12:54:56;;;;;;;9.10;4.85;;;;;;;;;;4999942;28;20228;-79
2022/04/15 12:57:21;;;;;;;3.92;2.15;;;;;;;;;;4985285;28;20037;-78
2022/04/15 12:59:47;;;;;;;3.90;2.05;;;;;;;;;;4995054;28;20486;-78
2022/04/15 13:02:13;;;;;;;4.47;2.30;;;;;;;;;;4994045;28;20038;-78
2022/04/15 13:04:38;;;;;;;4.47;2.28;;;;;;;;;;4960625;28;20042;-78
2022/04/15 13:07:04;;;;;;;7.10;4.72;;;;;;;;;;4966648;28;20031;-78
2022/04/15 13:09:29;;;;;;;4.53;2.70;;;;;;;;;;4978425;28;20121;-78
2022/04/15 13:11:55;;;;;;;5.28;2.50;;;;;;;;;;4980792;28;20041;-78
2022/04/15 13:14:20;;;;;;;3.95;2.33;;;;;;;;;;4991833;28;20092;-79
2022/04/15 13:16:45;;;;;;;4.45;2.53;;;;;;;;;;4990271;28;20034;-78
2022/04/15 13:19:11;;;;;;;3.85;2.28;;;;;;;;;;4993797;28;20049;-78
2022/04/15 13:21:36;;;;;;;5.22;2.70;;;;;;;;;;4996094;28;20062;-78
2022/04/15 13:24:02;;;;;;;3.70;2.28;;;;;;;;;;4964782;28;20057;-77
2022/04/15 13:26:27;;;;;;;4.90;2.55;;;;;;;;;;4962241;28;20034;-78
2022/04/15 13:28:52;;;;;;;4.30;2.30;;;;;;;;;;4967606;28;20086;-78
2022/04/15 13:31:18;;;;;;;3.55;2.00;;;;;;;;;;4966791;28;20129;-78
2022/04/15 13:33:43;;;;;;;4.13;2.40;;;;;;;;;;4975967;28;20541;-78
2022/04/15 13:36:08;;;;;;;3.72;1.95;;;;;;;;;;4978840;28;20034;-78
2022/04/15 13:38:34;;;;;;;3.58;1.90;;;;;;;;;;4985492;28;20485;-78
2022/04/15 13:40:59;;;;;;;3.95;2.20;;;;;;;;;;4974548;28;20125;-78
2022/04/15 13:43:24;;;;;;;4.65;2.17;;;;;;;;;;4993712;28;20482;-79
2022/04/15 13:45:49;;;;;;;4.53;2.50;;;;;;;;;;4994782;28;20382;-80
2022/04/15 13:48:15;;;;;;;4.40;2.60;;;;;;;;;;4985150;28;20038;-80
2022/04/15 13:50:40;;;;;;;4.88;2.80;;;;;;;;;;4981295;28;20067;-80
2022/04/15 13:58:33;;;;;;;6.07;2.95;;;;;;;;;;4983666;28;20044;-80
2022/04/15 14:00:59;;;;;;;6.38;3.45;;;;;;;;;;4988220;28;20791;-79
2022/04/15 14:03:25;;;;;;;5.38;3.30;;;;;;;;;;4971469;28;20084;-80
2022/04/15 14:05:50;;;;;;;5.18;3.20;;;;;;;;;;4981158;28;20035;-80
2022/04/15 14:08:15;;;;;;;4.60;3.17;;;;;;;;;;4979812;28;20078;-80
2022/04/15 14:10:40;;;;;;;6.13;3.90;;;;;;;;;;4982374;28;20512;-80
2022/04/15 14:13:06;;;;;;;6.32;4.15;;;;;;;;;;4985732;28;20087;-80
2022/04/15 14:15:31;;;;;;;6.13;4.22;;;;;;;;;;4999524;28;20490;-79
2022/04/15 14:17:58;;;;;;;8.02;5.75;;;;;;;;;;4991267;28;20116;-79
2022/04/15 14:20:24;;;;;;;7.88;5.43;;;;;;;;;;4985968;28;20038;-80
2022/04/15 14:22:49;;;;;;;6.88;4.97;;;;;;;;;;4985399;28;20129;-79
2022/04/15 14:25:15;;;;;;;9.57;6.60;;;;;;;;;;4990936;28;20481;-81
2022/04/15 14:27:40;;;;;;;8.73;5.90;;;;;;;;;;4982578;28;20034;-81
2022/04/15 14:30:06;;;;;;;12.23;7.25;;;;;;;;;;4992848;28;20064;-81
2022/04/15 14:32:32;;;;;;;10.35;7.20;;;;;;;;;;5007393;28;20030;-81
2022/04/15 14:34:57;;;;;;;11.35;7.70;;;;;;;;;;4979933;28;20041;-81
2022/04/15 14:37:22;;;;;;;14.52;8.93;;;;;;;;;;4986745;28;20052;-79